sensor_id;sensor_type;location;lat;lon;timestamp;P1;durP1;ratioP1;P2;durP2;ratioP2
77432;SDS011;66752;48.576;8.876;2023-03-23T00:03:24;5.72;;;2.40;;
77432;SDS011;66752;48.576;8.876;2023-03-23T00:05:51;6.72;;;2.65;;
77432;SDS011;66752;48.576;8.876;2023-03-23T00:08:18;5.90;;;2.72;;
77432;SDS011;66752;48.576;8.876;2023-03-23T00:10:47;5.45;;;2.72;;
77432;SDS011;66752;48.576;8.876;2023-03-23T00:13:14;7.75;;;3.20;;
77432;SDS011;66752;48.576;8.876;2023-03-23T00:15:44;9.43;;;3.00;;
77432;SDS011;66752;48.576;8.876;2023-03-23T00:18:10;5.97;;;2.78;;
77432;SDS011;66752;48.576;8.876;2023-03-23T00:20:45;8.35;;;3.50;;
77432;SDS011;66752;48.576;8.876;2023-03-23T00:23:14;6.07;;;3.00;;
77432;SDS011;66752;48.576;8.876;2023-03-23T00:25:44;9.20;;;2.92;;
77432;SDS011;66752;48.576;8.876;2023-03-23T00:28:10;6.35;;;3.00;;
77432;SDS011;66752;48.576;8.876;2023-03-23T00:30:38;7.05;;;3.38;;
77432;SDS011;66752;48.576;8.876;2023-03-23T00:33:04;8.20;;;3.10;;
77432;SDS011;66752;48.576;8.876;2023-03-23T00:35:30;9.20;;;2.83;;
77432;SDS011;66752;48.576;8.876;2023-03-23T00:37:56;5.55;;;2.60;;
77432;SDS011;66752;48.576;8.876;2023-03-23T00:40:23;5.63;;;2.65;;
77432;SDS011;66752;48.576;8.876;2023-03-23T00:42:51;5.25;;;2.25;;
77432;SDS011;66752;48.576;8.876;2023-03-23T00:45:17;7.38;;;2.40;;
77432;SDS011;66752;48.576;8.876;2023-03-23T00:47:43;5.57;;;2.80;;
77432;SDS011;66752;48.576;8.876;2023-03-23T00:50:11;7.65;;;2.53;;
77432;SDS011;66752;48.576;8.876;2023-03-23T00:52:38;5.55;;;2.92;;
77432;SDS011;66752;48.576;8.876;2023-03-23T00:55:04;4.90;;;2.22;;
77432;SDS011;66752;48.576;8.876;2023-03-23T00:57:31;7.63;;;2.63;;
77432;SDS011;66752;48.576;8.876;2023-03-23T00:59:57;4.95;;;2.33;;
77432;SDS011;66752;48.576;8.876;2023-03-23T01:02:23;5.57;;;2.42;;
77432;SDS011;66752;48.576;8.876;2023-03-23T01:04:52;5.05;;;2.22;;
77432;SDS011;66752;48.576;8.876;2023-03-23T01:07:21;6.50;;;2.65;;
77432;SDS011;66752;48.576;8.876;2023-03-23T01:09:48;5.45;;;2.38;;
77432;SDS011;66752;48.576;8.876;2023-03-23T01:12:18;5.47;;;2.42;;
77432;SDS011;66752;48.576;8.876;2023-03-23T01:14:44;5.05;;;2.45;;
77432;SDS011;66752;48.576;8.876;2023-03-23T01:17:10;4.78;;;2.25;;
77432;SDS011;66752;48.576;8.876;2023-03-23T01:19:36;5.65;;;2.53;;
77432;SDS011;66752;48.576;8.876;2023-03-23T01:22:02;5.00;;;2.35;;
77432;SDS011;66752;48.576;8.876;2023-03-23T01:24:28;5.38;;;2.33;;
77432;SDS011;66752;48.576;8.876;2023-03-23T01:26:54;5.38;;;2.40;;
77432;SDS011;66752;48.576;8.876;2023-03-23T01:29:20;6.60;;;2.80;;
77432;SDS011;66752;48.576;8.876;2023-03-23T01:31:46;6.35;;;2.35;;
77432;SDS011;66752;48.576;8.876;2023-03-23T01:34:12;5.47;;;2.60;;
77432;SDS011;66752;48.576;8.876;2023-03-23T01:36:38;4.60;;;2.08;;
77432;SDS011;66752;48.576;8.876;2023-03-23T01:39:05;5.60;;;2.33;;
77432;SDS011;66752;48.576;8.876;2023-03-23T01:41:31;6.57;;;2.88;;
77432;SDS011;66752;48.576;8.876;2023-03-23T01:46:31;5.22;;;2.40;;
77432;SDS011;66752;48.576;8.876;2023-03-23T01:48:58;5.57;;;2.88;;
77432;SDS011;66752;48.576;8.876;2023-03-23T01:51:25;7.68;;;2.60;;
77432;SDS011;66752;48.576;8.876;2023-03-23T01:53:54;6.40;;;2.53;;
77432;SDS011;66752;48.576;8.876;2023-03-23T01:56:21;6.07;;;2.75;;
77432;SDS011;66752;48.576;8.876;2023-03-23T01:58:51;6.35;;;2.80;;
77432;SDS011;66752;48.576;8.876;2023-03-23T02:01:18;6.10;;;2.50;;
77432;SDS011;66752;48.576;8.876;2023-03-23T02:03:46;6.40;;;2.80;;
77432;SDS011;66752;48.576;8.876;2023-03-23T02:06:13;5.78;;;2.78;;
77432;SDS011;66752;48.576;8.876;2023-03-23T02:08:39;5.18;;;2.97;;
77432;SDS011;66752;48.576;8.876;2023-03-23T02:11:15;7.38;;;2.50;;
77432;SDS011;66752;48.576;8.876;2023-03-23T02:13:41;7.60;;;2.78;;
77432;SDS011;66752;48.576;8.876;2023-03-23T02:31:47;5.85;;;2.28;;
77432;SDS011;66752;48.576;8.876;2023-03-23T02:34:18;5.70;;;2.63;;
77432;SDS011;66752;48.576;8.876;2023-03-23T02:36:47;11.90;;;2.70;;
77432;SDS011;66752;48.576;8.876;2023-03-23T02:39:19;5.10;;;2.47;;
77432;SDS011;66752;48.576;8.876;2023-03-23T02:41:48;5.45;;;2.88;;
77432;SDS011;66752;48.576;8.876;2023-03-23T02:44:15;6.28;;;3.13;;
77432;SDS011;66752;48.576;8.876;2023-03-23T02:46:41;7.43;;;3.40;;
77432;SDS011;66752;48.576;8.876;2023-03-23T02:51:34;5.68;;;2.80;;
77432;SDS011;66752;48.576;8.876;2023-03-23T02:54:01;6.72;;;3.40;;
77432;SDS011;66752;48.576;8.876;2023-03-23T02:58:54;7.80;;;3.55;;
77432;SDS011;66752;48.576;8.876;2023-03-23T03:03:46;6.07;;;2.85;;
77432;SDS011;66752;48.576;8.876;2023-03-23T03:06:26;5.50;;;2.70;;
77432;SDS011;66752;48.576;8.876;2023-03-23T03:11:20;6.20;;;2.50;;
77432;SDS011;66752;48.576;8.876;2023-03-23T03:14:09;6.93;;;2.45;;
77432;SDS011;66752;48.576;8.876;2023-03-23T03:19:14;7.95;;;2.40;;
77432;SDS011;66752;48.576;8.876;2023-03-23T03:21:42;6.05;;;2.22;;
77432;SDS011;66752;48.576;8.876;2023-03-23T03:24:08;5.55;;;2.05;;
77432;SDS011;66752;48.576;8.876;2023-03-23T03:26:36;4.38;;;2.08;;
77432;SDS011;66752;48.576;8.876;2023-03-23T03:29:02;5.70;;;2.42;;
77432;SDS011;66752;48.576;8.876;2023-03-23T03:31:38;4.65;;;2.13;;
77432;SDS011;66752;48.576;8.876;2023-03-23T03:34:05;5.72;;;2.28;;
77432;SDS011;66752;48.576;8.876;2023-03-23T03:36:33;4.68;;;2.30;;
77432;SDS011;66752;48.576;8.876;2023-03-23T03:39:00;5.65;;;2.50;;
77432;SDS011;66752;48.576;8.876;2023-03-23T03:41:31;4.55;;;1.95;;
77432;SDS011;66752;48.576;8.876;2023-03-23T03:43:57;5.50;;;2.72;;
77432;SDS011;66752;48.576;8.876;2023-03-23T03:46:23;4.93;;;2.03;;
77432;SDS011;66752;48.576;8.876;2023-03-23T03:48:52;5.13;;;2.10;;
77432;SDS011;66752;48.576;8.876;2023-03-23T03:51:18;4.78;;;2.20;;
77432;SDS011;66752;48.576;8.876;2023-03-23T03:53:44;4.90;;;2.22;;
77432;SDS011;66752;48.576;8.876;2023-03-23T03:56:10;4.90;;;2.13;;
77432;SDS011;66752;48.576;8.876;2023-03-23T03:58:38;6.90;;;2.92;;
77432;SDS011;66752;48.576;8.876;2023-03-23T04:01:07;4.97;;;2.50;;
77432;SDS011;66752;48.576;8.876;2023-03-23T04:03:35;4.95;;;2.10;;
77432;SDS011;66752;48.576;8.876;2023-03-23T04:06:01;5.22;;;2.08;;
77432;SDS011;66752;48.576;8.876;2023-03-23T04:08:27;5.53;;;2.58;;
77432;SDS011;66752;48.576;8.876;2023-03-23T04:10:53;7.20;;;2.35;;
77432;SDS011;66752;48.576;8.876;2023-03-23T04:13:19;4.25;;;2.13;;
77432;SDS011;66752;48.576;8.876;2023-03-23T04:15:46;6.75;;;2.33;;
77432;SDS011;66752;48.576;8.876;2023-03-23T04:18:12;4.57;;;2.40;;
77432;SDS011;66752;48.576;8.876;2023-03-23T04:20:40;5.15;;;2.47;;
77432;SDS011;66752;48.576;8.876;2023-03-23T04:23:06;8.35;;;4.82;;
77432;SDS011;66752;48.576;8.876;2023-03-23T04:25:32;6.07;;;3.17;;
77432;SDS011;66752;48.576;8.876;2023-03-23T04:27:58;8.10;;;3.30;;
77432;SDS011;66752;48.576;8.876;2023-03-23T04:30:26;4.93;;;2.50;;
77432;SDS011;66752;48.576;8.876;2023-03-23T04:32:52;5.32;;;2.72;;
77432;SDS011;66752;48.576;8.876;2023-03-23T04:35:21;5.97;;;2.90;;
77432;SDS011;66752;48.576;8.876;2023-03-23T04:37:47;4.88;;;2.28;;
77432;SDS011;66752;48.576;8.876;2023-03-23T04:40:13;4.80;;;2.30;;
77432;SDS011;66752;48.576;8.876;2023-03-23T04:42:41;5.45;;;2.30;;
77432;SDS011;66752;48.576;8.876;2023-03-23T04:45:11;5.35;;;2.47;;
77432;SDS011;66752;48.576;8.876;2023-03-23T04:47:39;4.53;;;2.33;;
77432;SDS011;66752;48.576;8.876;2023-03-23T04:50:09;5.07;;;2.80;;
77432;SDS011;66752;48.576;8.876;2023-03-23T04:52:36;5.25;;;2.63;;
77432;SDS011;66752;48.576;8.876;2023-03-23T04:55:03;6.22;;;2.85;;
77432;SDS011;66752;48.576;8.876;2023-03-23T04:57:30;5.60;;;2.40;;
77432;SDS011;66752;48.576;8.876;2023-03-23T04:59:56;6.13;;;2.30;;
77432;SDS011;66752;48.576;8.876;2023-03-23T05:02:22;5.28;;;2.50;;
77432;SDS011;66752;48.576;8.876;2023-03-23T05:04:50;4.65;;;2.20;;
77432;SDS011;66752;48.576;8.876;2023-03-23T05:07:16;5.45;;;2.30;;
77432;SDS011;66752;48.576;8.876;2023-03-23T05:09:42;5.35;;;2.20;;
77432;SDS011;66752;48.576;8.876;2023-03-23T05:12:12;5.35;;;2.50;;
77432;SDS011;66752;48.576;8.876;2023-03-23T05:14:40;5.47;;;2.63;;
77432;SDS011;66752;48.576;8.876;2023-03-23T05:17:06;5.40;;;2.30;;
77432;SDS011;66752;48.576;8.876;2023-03-23T05:19:32;5.47;;;2.42;;
77432;SDS011;66752;48.576;8.876;2023-03-23T05:21:58;5.40;;;2.40;;
77432;SDS011;66752;48.576;8.876;2023-03-23T05:24:28;4.43;;;1.75;;
77432;SDS011;66752;48.576;8.876;2023-03-23T05:26:56;5.78;;;2.13;;
77432;SDS011;66752;48.576;8.876;2023-03-23T05:29:22;4.30;;;2.17;;
77432;SDS011;66752;48.576;8.876;2023-03-23T05:31:50;5.15;;;2.08;;
77432;SDS011;66752;48.576;8.876;2023-03-23T05:34:17;5.85;;;2.20;;
77432;SDS011;66752;48.576;8.876;2023-03-23T05:36:43;5.53;;;2.33;;
77432;SDS011;66752;48.576;8.876;2023-03-23T05:39:10;4.35;;;2.00;;
77432;SDS011;66752;48.576;8.876;2023-03-23T05:41:37;6.45;;;1.92;;
77432;SDS011;66752;48.576;8.876;2023-03-23T05:44:04;5.57;;;2.15;;
77432;SDS011;66752;48.576;8.876;2023-03-23T05:46:30;4.80;;;2.20;;
77432;SDS011;66752;48.576;8.876;2023-03-23T05:48:57;4.88;;;1.90;;
77432;SDS011;66752;48.576;8.876;2023-03-23T05:51:23;5.32;;;2.05;;
77432;SDS011;66752;48.576;8.876;2023-03-23T05:53:49;5.25;;;2.22;;
77432;SDS011;66752;48.576;8.876;2023-03-23T05:56:15;6.60;;;2.10;;
77432;SDS011;66752;48.576;8.876;2023-03-23T05:58:41;4.88;;;2.20;;
77432;SDS011;66752;48.576;8.876;2023-03-23T06:01:07;4.75;;;2.00;;
77432;SDS011;66752;48.576;8.876;2023-03-23T06:03:33;4.85;;;2.45;;
77432;SDS011;66752;48.576;8.876;2023-03-23T06:06:01;6.30;;;2.13;;
77432;SDS011;66752;48.576;8.876;2023-03-23T06:08:27;4.60;;;2.33;;
77432;SDS011;66752;48.576;8.876;2023-03-23T06:10:53;5.20;;;1.98;;
77432;SDS011;66752;48.576;8.876;2023-03-23T06:13:20;4.68;;;2.25;;
77432;SDS011;66752;48.576;8.876;2023-03-23T06:15:46;4.97;;;2.42;;
77432;SDS011;66752;48.576;8.876;2023-03-23T06:18:12;4.68;;;2.20;;
77432;SDS011;66752;48.576;8.876;2023-03-23T06:20:38;5.72;;;2.40;;
77432;SDS011;66752;48.576;8.876;2023-03-23T06:23:05;5.38;;;2.28;;
77432;SDS011;66752;48.576;8.876;2023-03-23T06:25:31;5.65;;;2.22;;
77432;SDS011;66752;48.576;8.876;2023-03-23T06:27:58;5.38;;;2.40;;
77432;SDS011;66752;48.576;8.876;2023-03-23T06:30:24;7.88;;;2.50;;
77432;SDS011;66752;48.576;8.876;2023-03-23T06:32:51;5.13;;;2.33;;
77432;SDS011;66752;48.576;8.876;2023-03-23T06:35:17;5.78;;;2.17;;
77432;SDS011;66752;48.576;8.876;2023-03-23T06:37:43;5.10;;;2.22;;
77432;SDS011;66752;48.576;8.876;2023-03-23T06:40:10;6.45;;;2.35;;
77432;SDS011;66752;48.576;8.876;2023-03-23T06:42:36;5.03;;;2.30;;
77432;SDS011;66752;48.576;8.876;2023-03-23T06:45:02;6.13;;;2.28;;
77432;SDS011;66752;48.576;8.876;2023-03-23T06:47:28;6.53;;;2.72;;
77432;SDS011;66752;48.576;8.876;2023-03-23T06:49:55;5.88;;;2.20;;
77432;SDS011;66752;48.576;8.876;2023-03-23T06:52:21;6.28;;;2.30;;
77432;SDS011;66752;48.576;8.876;2023-03-23T06:54:48;5.75;;;2.40;;
77432;SDS011;66752;48.576;8.876;2023-03-23T06:57:14;4.32;;;2.00;;
77432;SDS011;66752;48.576;8.876;2023-03-23T06:59:40;4.28;;;1.75;;
77432;SDS011;66752;48.576;8.876;2023-03-23T07:02:08;4.60;;;1.90;;
77432;SDS011;66752;48.576;8.876;2023-03-23T07:04:34;5.80;;;2.05;;
77432;SDS011;66752;48.576;8.876;2023-03-23T07:07:00;6.40;;;2.35;;
77432;SDS011;66752;48.576;8.876;2023-03-23T07:09:26;5.40;;;3.15;;
77432;SDS011;66752;48.576;8.876;2023-03-23T07:11:52;5.13;;;1.92;;
77432;SDS011;66752;48.576;8.876;2023-03-23T07:14:19;5.13;;;2.22;;
77432;SDS011;66752;48.576;8.876;2023-03-23T07:16:46;5.68;;;2.10;;
77432;SDS011;66752;48.576;8.876;2023-03-23T07:19:12;4.80;;;2.22;;
77432;SDS011;66752;48.576;8.876;2023-03-23T07:21:38;6.22;;;1.90;;
77432;SDS011;66752;48.576;8.876;2023-03-23T07:24:05;6.18;;;2.40;;
77432;SDS011;66752;48.576;8.876;2023-03-23T07:26:31;4.43;;;1.95;;
77432;SDS011;66752;48.576;8.876;2023-03-23T07:28:57;4.35;;;1.70;;
77432;SDS011;66752;48.576;8.876;2023-03-23T07:31:23;5.20;;;2.10;;
77432;SDS011;66752;48.576;8.876;2023-03-23T07:33:49;6.88;;;2.28;;
77432;SDS011;66752;48.576;8.876;2023-03-23T07:36:15;5.80;;;2.38;;
77432;SDS011;66752;48.576;8.876;2023-03-23T07:38:41;5.82;;;2.08;;
77432;SDS011;66752;48.576;8.876;2023-03-23T07:41:08;4.75;;;2.17;;
77432;SDS011;66752;48.576;8.876;2023-03-23T07:43:34;7.28;;;2.38;;
77432;SDS011;66752;48.576;8.876;2023-03-23T07:46:00;4.78;;;1.98;;
77432;SDS011;66752;48.576;8.876;2023-03-23T07:48:26;6.75;;;2.67;;
77432;SDS011;66752;48.576;8.876;2023-03-23T07:50:52;5.65;;;2.75;;
77432;SDS011;66752;48.576;8.876;2023-03-23T07:53:18;6.40;;;2.60;;
77432;SDS011;66752;48.576;8.876;2023-03-23T07:55:46;11.90;;;4.80;;
77432;SDS011;66752;48.576;8.876;2023-03-23T07:58:12;7.50;;;2.60;;
77432;SDS011;66752;48.576;8.876;2023-03-23T08:00:43;6.35;;;2.55;;
77432;SDS011;66752;48.576;8.876;2023-03-23T08:03:10;5.95;;;3.05;;
77432;SDS011;66752;48.576;8.876;2023-03-23T08:05:37;5.85;;;2.70;;
77432;SDS011;66752;48.576;8.876;2023-03-23T08:08:03;4.45;;;1.90;;
77432;SDS011;66752;48.576;8.876;2023-03-23T08:10:29;5.47;;;2.38;;
77432;SDS011;66752;48.576;8.876;2023-03-23T08:12:55;6.75;;;2.28;;
77432;SDS011;66752;48.576;8.876;2023-03-23T08:15:22;6.43;;;2.53;;
77432;SDS011;66752;48.576;8.876;2023-03-23T08:20:15;5.10;;;2.00;;
77432;SDS011;66752;48.576;8.876;2023-03-23T08:22:43;7.43;;;2.30;;
77432;SDS011;66752;48.576;8.876;2023-03-23T08:25:10;4.70;;;1.73;;
77432;SDS011;66752;48.576;8.876;2023-03-23T08:27:37;4.35;;;1.83;;
77432;SDS011;66752;48.576;8.876;2023-03-23T08:30:08;5.18;;;2.03;;
77432;SDS011;66752;48.576;8.876;2023-03-23T08:32:34;4.03;;;1.77;;
77432;SDS011;66752;48.576;8.876;2023-03-23T08:35:01;4.00;;;1.70;;
77432;SDS011;66752;48.576;8.876;2023-03-23T08:37:27;5.82;;;1.73;;
77432;SDS011;66752;48.576;8.876;2023-03-23T08:39:54;4.05;;;1.85;;
77432;SDS011;66752;48.576;8.876;2023-03-23T08:42:22;5.18;;;1.52;;
77432;SDS011;66752;48.576;8.876;2023-03-23T08:44:48;7.22;;;1.70;;
77432;SDS011;66752;48.576;8.876;2023-03-23T08:47:14;4.25;;;1.63;;
77432;SDS011;66752;48.576;8.876;2023-03-23T08:52:07;4.53;;;1.65;;
77432;SDS011;66752;48.576;8.876;2023-03-23T08:54:34;5.32;;;2.10;;
77432;SDS011;66752;48.576;8.876;2023-03-23T08:57:00;5.93;;;2.70;;
77432;SDS011;66752;48.576;8.876;2023-03-23T08:59:27;4.72;;;1.80;;
77432;SDS011;66752;48.576;8.876;2023-03-23T09:01:53;5.63;;;1.75;;
77432;SDS011;66752;48.576;8.876;2023-03-23T09:04:19;5.65;;;2.63;;
77432;SDS011;66752;48.576;8.876;2023-03-23T09:06:45;4.78;;;1.73;;
77432;SDS011;66752;48.576;8.876;2023-03-23T09:09:12;4.57;;;1.63;;
77432;SDS011;66752;48.576;8.876;2023-03-23T09:11:38;5.68;;;1.90;;
77432;SDS011;66752;48.576;8.876;2023-03-23T09:14:04;5.05;;;2.10;;
77432;SDS011;66752;48.576;8.876;2023-03-23T09:16:31;4.43;;;1.90;;
77432;SDS011;66752;48.576;8.876;2023-03-23T09:18:57;4.45;;;1.88;;
77432;SDS011;66752;48.576;8.876;2023-03-23T09:21:24;4.97;;;2.20;;
77432;SDS011;66752;48.576;8.876;2023-03-23T09:23:50;4.13;;;1.98;;
77432;SDS011;66752;48.576;8.876;2023-03-23T09:26:16;6.07;;;2.05;;
77432;SDS011;66752;48.576;8.876;2023-03-23T09:28:42;7.38;;;2.33;;
77432;SDS011;66752;48.576;8.876;2023-03-23T09:31:10;5.45;;;2.13;;
77432;SDS011;66752;48.576;8.876;2023-03-23T09:33:36;4.43;;;1.90;;
77432;SDS011;66752;48.576;8.876;2023-03-23T09:36:02;4.15;;;1.70;;
77432;SDS011;66752;48.576;8.876;2023-03-23T09:38:29;4.57;;;1.95;;
77432;SDS011;66752;48.576;8.876;2023-03-23T09:41:14;4.65;;;1.90;;
77432;SDS011;66752;48.576;8.876;2023-03-23T09:43:46;3.95;;;1.73;;
77432;SDS011;66752;48.576;8.876;2023-03-23T09:48:43;4.80;;;1.95;;
77432;SDS011;66752;48.576;8.876;2023-03-23T09:53:44;4.90;;;1.50;;
77432;SDS011;66752;48.576;8.876;2023-03-23T09:56:12;4.78;;;1.67;;
77432;SDS011;66752;48.576;8.876;2023-03-23T09:58:51;5.43;;;1.83;;
77432;SDS011;66752;48.576;8.876;2023-03-23T10:01:40;5.38;;;1.92;;
77432;SDS011;66752;48.576;8.876;2023-03-23T10:04:39;5.25;;;2.63;;
77432;SDS011;66752;48.576;8.876;2023-03-23T10:07:05;5.93;;;1.88;;
77432;SDS011;66752;48.576;8.876;2023-03-23T10:09:35;4.93;;;2.05;;
77432;SDS011;66752;48.576;8.876;2023-03-23T10:12:14;5.43;;;1.85;;
77432;SDS011;66752;48.576;8.876;2023-03-23T10:14:55;4.72;;;2.00;;
77432;SDS011;66752;48.576;8.876;2023-03-23T10:17:28;5.05;;;2.03;;
77432;SDS011;66752;48.576;8.876;2023-03-23T10:22:32;4.78;;;1.75;;
77432;SDS011;66752;48.576;8.876;2023-03-23T10:25:05;4.65;;;1.60;;
77432;SDS011;66752;48.576;8.876;2023-03-23T10:27:37;5.57;;;1.90;;
77432;SDS011;66752;48.576;8.876;2023-03-23T10:30:19;4.82;;;2.05;;
77432;SDS011;66752;48.576;8.876;2023-03-23T10:35:40;7.05;;;2.40;;
77432;SDS011;66752;48.576;8.876;2023-03-23T10:38:19;3.85;;;1.80;;
77432;SDS011;66752;48.576;8.876;2023-03-23T10:40:50;4.10;;;2.00;;
77432;SDS011;66752;48.576;8.876;2023-03-23T10:43:18;4.13;;;1.90;;
77432;SDS011;66752;48.576;8.876;2023-03-23T10:45:45;5.10;;;2.00;;
77432;SDS011;66752;48.576;8.876;2023-03-23T10:48:22;5.70;;;2.10;;
77432;SDS011;66752;48.576;8.876;2023-03-23T10:50:50;5.38;;;2.22;;
77432;SDS011;66752;48.576;8.876;2023-03-23T10:53:21;5.47;;;1.95;;
77432;SDS011;66752;48.576;8.876;2023-03-23T10:55:49;4.53;;;1.90;;
77432;SDS011;66752;48.576;8.876;2023-03-23T10:58:31;4.30;;;1.80;;
77432;SDS011;66752;48.576;8.876;2023-03-23T11:00:58;4.38;;;1.83;;
77432;SDS011;66752;48.576;8.876;2023-03-23T11:03:28;4.78;;;1.90;;
77432;SDS011;66752;48.576;8.876;2023-03-23T11:06:08;5.95;;;2.15;;
77432;SDS011;66752;48.576;8.876;2023-03-23T11:08:35;5.70;;;2.03;;
77432;SDS011;66752;48.576;8.876;2023-03-23T11:11:14;4.72;;;1.80;;
77432;SDS011;66752;48.576;8.876;2023-03-23T11:13:44;5.53;;;1.98;;
77432;SDS011;66752;48.576;8.876;2023-03-23T11:16:21;4.82;;;2.08;;
77432;SDS011;66752;48.576;8.876;2023-03-23T11:18:47;4.03;;;1.80;;
77432;SDS011;66752;48.576;8.876;2023-03-23T11:21:14;7.50;;;2.85;;
77432;SDS011;66752;48.576;8.876;2023-03-23T11:23:42;4.03;;;1.63;;
77432;SDS011;66752;48.576;8.876;2023-03-23T11:28:42;4.18;;;1.90;;
77432;SDS011;66752;48.576;8.876;2023-03-23T11:31:08;4.72;;;1.73;;
77432;SDS011;66752;48.576;8.876;2023-03-23T11:33:36;4.65;;;2.08;;
77432;SDS011;66752;48.576;8.876;2023-03-23T11:36:03;4.70;;;1.80;;
77432;SDS011;66752;48.576;8.876;2023-03-23T11:38:31;5.35;;;2.10;;
77432;SDS011;66752;48.576;8.876;2023-03-23T11:40:58;4.20;;;1.88;;
77432;SDS011;66752;48.576;8.876;2023-03-23T11:48:38;4.05;;;1.80;;
77432;SDS011;66752;48.576;8.876;2023-03-23T11:56:30;4.35;;;1.77;;
77432;SDS011;66752;48.576;8.876;2023-03-23T11:58:57;4.40;;;1.90;;
77432;SDS011;66752;48.576;8.876;2023-03-23T12:06:38;5.15;;;1.83;;
77432;SDS011;66752;48.576;8.876;2023-03-23T12:09:10;4.72;;;1.90;;
77432;SDS011;66752;48.576;8.876;2023-03-23T12:17:07;6.35;;;1.73;;
77432;SDS011;66752;48.576;8.876;2023-03-23T12:22:18;6.28;;;1.73;;
77432;SDS011;66752;48.576;8.876;2023-03-23T12:35:14;4.28;;;1.70;;
77432;SDS011;66752;48.576;8.876;2023-03-23T12:42:58;5.15;;;1.85;;
77432;SDS011;66752;48.576;8.876;2023-03-23T12:48:02;5.38;;;1.80;;
77432;SDS011;66752;48.576;8.876;2023-03-23T12:50:31;6.70;;;1.88;;
77432;SDS011;66752;48.576;8.876;2023-03-23T12:53:01;4.68;;;2.13;;
77432;SDS011;66752;48.576;8.876;2023-03-23T12:57:56;4.78;;;2.00;;
77432;SDS011;66752;48.576;8.876;2023-03-23T13:00:29;3.65;;;1.73;;
77432;SDS011;66752;48.576;8.876;2023-03-23T13:02:59;6.75;;;2.20;;
77432;SDS011;66752;48.576;8.876;2023-03-23T13:05:31;4.57;;;1.50;;
77432;SDS011;66752;48.576;8.876;2023-03-23T13:08:04;4.75;;;1.75;;
77432;SDS011;66752;48.576;8.876;2023-03-23T13:10:33;4.25;;;1.77;;
77432;SDS011;66752;48.576;8.876;2023-03-23T13:13:01;5.25;;;2.00;;
77432;SDS011;66752;48.576;8.876;2023-03-23T13:15:31;5.65;;;1.80;;
77432;SDS011;66752;48.576;8.876;2023-03-23T13:20:58;4.57;;;1.77;;
77432;SDS011;66752;48.576;8.876;2023-03-23T13:23:20;4.00;;;1.70;;
77432;SDS011;66752;48.576;8.876;2023-03-23T13:28:14;4.13;;;1.75;;
77432;SDS011;66752;48.576;8.876;2023-03-23T13:30:52;5.85;;;2.20;;
77432;SDS011;66752;48.576;8.876;2023-03-23T13:33:18;3.88;;;1.83;;
77432;SDS011;66752;48.576;8.876;2023-03-23T13:35:44;4.53;;;1.90;;
77432;SDS011;66752;48.576;8.876;2023-03-23T13:38:17;4.22;;;1.65;;
77432;SDS011;66752;48.576;8.876;2023-03-23T13:40:44;5.90;;;1.88;;
77432;SDS011;66752;48.576;8.876;2023-03-23T13:43:10;5.90;;;2.22;;
77432;SDS011;66752;48.576;8.876;2023-03-23T13:45:42;7.80;;;2.70;;
77432;SDS011;66752;48.576;8.876;2023-03-23T13:50:48;4.07;;;2.00;;
77432;SDS011;66752;48.576;8.876;2023-03-23T13:53:20;4.53;;;2.00;;
77432;SDS011;66752;48.576;8.876;2023-03-23T13:55:48;4.10;;;2.05;;
77432;SDS011;66752;48.576;8.876;2023-03-23T13:58:22;4.55;;;1.83;;
77432;SDS011;66752;48.576;8.876;2023-03-23T14:00:50;3.80;;;1.60;;
77432;SDS011;66752;48.576;8.876;2023-03-23T14:03:26;4.40;;;2.13;;
77432;SDS011;66752;48.576;8.876;2023-03-23T14:08:35;6.68;;;1.95;;
77432;SDS011;66752;48.576;8.876;2023-03-23T14:11:10;4.97;;;2.33;;
77432;SDS011;66752;48.576;8.876;2023-03-23T14:16:25;5.43;;;1.65;;
77432;SDS011;66752;48.576;8.876;2023-03-23T14:18:55;4.28;;;1.90;;
77432;SDS011;66752;48.576;8.876;2023-03-23T14:23:53;4.82;;;2.10;;
77432;SDS011;66752;48.576;8.876;2023-03-23T14:26:21;4.25;;;1.77;;
77432;SDS011;66752;48.576;8.876;2023-03-23T14:28:50;6.03;;;1.90;;
77432;SDS011;66752;48.576;8.876;2023-03-23T14:33:45;4.47;;;1.77;;
77432;SDS011;66752;48.576;8.876;2023-03-23T14:36:13;4.75;;;1.75;;
77432;SDS011;66752;48.576;8.876;2023-03-23T14:38:38;4.63;;;1.85;;
77432;SDS011;66752;48.576;8.876;2023-03-23T14:41:05;7.03;;;2.17;;
77432;SDS011;66752;48.576;8.876;2023-03-23T14:43:32;4.47;;;2.00;;
77432;SDS011;66752;48.576;8.876;2023-03-23T14:45:59;4.63;;;1.75;;
77432;SDS011;66752;48.576;8.876;2023-03-23T14:48:26;4.40;;;1.70;;
77432;SDS011;66752;48.576;8.876;2023-03-23T14:50:55;6.28;;;1.85;;
77432;SDS011;66752;48.576;8.876;2023-03-23T14:53:32;4.65;;;1.83;;
77432;SDS011;66752;48.576;8.876;2023-03-23T14:56:03;5.05;;;1.95;;
77432;SDS011;66752;48.576;8.876;2023-03-23T14:58:30;4.13;;;1.80;;
77432;SDS011;66752;48.576;8.876;2023-03-23T15:00:58;3.92;;;1.85;;
77432;SDS011;66752;48.576;8.876;2023-03-23T15:03:24;4.35;;;1.90;;
77432;SDS011;66752;48.576;8.876;2023-03-23T15:05:54;6.10;;;2.05;;
77432;SDS011;66752;48.576;8.876;2023-03-23T15:08:25;4.43;;;1.65;;
77432;SDS011;66752;48.576;8.876;2023-03-23T15:11:02;4.80;;;2.00;;
77432;SDS011;66752;48.576;8.876;2023-03-23T15:13:29;4.93;;;1.50;;
77432;SDS011;66752;48.576;8.876;2023-03-23T15:16:02;5.28;;;1.77;;
77432;SDS011;66752;48.576;8.876;2023-03-23T15:18:39;4.70;;;1.60;;
77432;SDS011;66752;48.576;8.876;2023-03-23T15:21:09;5.93;;;2.33;;
77432;SDS011;66752;48.576;8.876;2023-03-23T15:23:40;5.32;;;2.00;;
77432;SDS011;66752;48.576;8.876;2023-03-23T15:26:06;4.53;;;2.10;;
77432;SDS011;66752;48.576;8.876;2023-03-23T15:28:32;4.63;;;2.10;;
77432;SDS011;66752;48.576;8.876;2023-03-23T15:31:03;4.28;;;1.80;;
77432;SDS011;66752;48.576;8.876;2023-03-23T15:33:36;5.47;;;2.08;;
77432;SDS011;66752;48.576;8.876;2023-03-23T15:36:23;5.05;;;1.75;;
77432;SDS011;66752;48.576;8.876;2023-03-23T15:38:48;5.38;;;2.05;;
77432;SDS011;66752;48.576;8.876;2023-03-23T15:41:20;5.38;;;1.98;;
77432;SDS011;66752;48.576;8.876;2023-03-23T15:43:51;5.22;;;2.10;;
77432;SDS011;66752;48.576;8.876;2023-03-23T15:48:53;5.47;;;1.83;;
77432;SDS011;66752;48.576;8.876;2023-03-23T15:51:28;4.72;;;1.85;;
77432;SDS011;66752;48.576;8.876;2023-03-23T15:53:55;3.65;;;1.50;;
77432;SDS011;66752;48.576;8.876;2023-03-23T15:56:22;4.03;;;1.77;;
77432;SDS011;66752;48.576;8.876;2023-03-23T15:58:48;4.32;;;1.83;;
77432;SDS011;66752;48.576;8.876;2023-03-23T16:01:22;4.53;;;2.10;;
77432;SDS011;66752;48.576;8.876;2023-03-23T16:03:59;4.25;;;1.77;;
77432;SDS011;66752;48.576;8.876;2023-03-23T16:06:26;5.38;;;1.70;;
77432;SDS011;66752;48.576;8.876;2023-03-23T16:08:52;4.22;;;1.60;;
77432;SDS011;66752;48.576;8.876;2023-03-23T16:11:18;5.03;;;1.77;;
77432;SDS011;66752;48.576;8.876;2023-03-23T16:13:44;4.32;;;1.83;;
77432;SDS011;66752;48.576;8.876;2023-03-23T16:16:12;5.50;;;1.90;;
77432;SDS011;66752;48.576;8.876;2023-03-23T16:18:39;4.97;;;1.80;;
77432;SDS011;66752;48.576;8.876;2023-03-23T16:21:05;6.35;;;2.00;;
77432;SDS011;66752;48.576;8.876;2023-03-23T16:23:31;4.95;;;1.80;;
77432;SDS011;66752;48.576;8.876;2023-03-23T16:25:57;6.07;;;2.00;;
77432;SDS011;66752;48.576;8.876;2023-03-23T16:28:23;6.10;;;1.90;;
77432;SDS011;66752;48.576;8.876;2023-03-23T16:30:49;4.82;;;1.90;;
77432;SDS011;66752;48.576;8.876;2023-03-23T16:33:15;5.35;;;1.98;;
77432;SDS011;66752;48.576;8.876;2023-03-23T16:35:41;6.63;;;1.90;;
77432;SDS011;66752;48.576;8.876;2023-03-23T16:38:09;6.00;;;2.40;;
77432;SDS011;66752;48.576;8.876;2023-03-23T16:40:36;4.65;;;1.88;;
77432;SDS011;66752;48.576;8.876;2023-03-23T16:43:02;4.28;;;2.03;;
77432;SDS011;66752;48.576;8.876;2023-03-23T16:45:28;4.88;;;2.00;;
77432;SDS011;66752;48.576;8.876;2023-03-23T16:47:54;5.85;;;2.20;;
77432;SDS011;66752;48.576;8.876;2023-03-23T16:50:25;4.60;;;1.60;;